Time;durP1;ratioP1;P1;durP2;ratioP2;P2;SDS_P1;SDS_P2;PMS_P1;PMS_P2;Temp;Humidity;BMP_temperature;BMP_pressure;BME280_temperature;BME280_humidity;BME280_pressure;Samples;Min_cycle;Max_cycle;Signal;HPM_P1;HPM_P2
2022/12/11 00:02:00;;;;;;;28.80;21.87;;;0.30;99.90;;;;;;4981757;28;20556;-84
2022/12/11 00:04:26;;;;;;;26.67;21.77;;;0.20;99.90;;;;;;4983032;28;20632;-83
2022/12/11 00:06:52;;;;;;;29.93;22.83;;;0.20;99.90;;;;;;4981972;28;20218;-83
2022/12/11 00:09:19;;;;;;;28.47;22.13;;;0.00;99.90;;;;;;4985022;28;20182;-83
2022/12/11 00:11:45;;;;;;;23.17;20.23;;;-0.10;99.90;;;;;;4987693;28;20547;-82
2022/12/11 00:14:13;;;;;;;23.77;19.50;;;-0.20;99.90;;;;;;4975142;28;20218;-81
2022/12/11 00:16:39;;;;;;;22.87;19.27;;;0.00;99.90;;;;;;4975668;28;20242;-83
2022/12/11 00:19:05;;;;;;;24.27;19.53;;;0.20;99.90;;;;;;4978528;28;20230;-81
2022/12/11 00:21:31;;;;;;;21.50;18.53;;;0.30;99.90;;;;;;4974839;28;20191;-83
2022/12/11 00:23:57;;;;;;;22.60;18.33;;;0.40;99.90;;;;;;4976320;28;20309;-83
2022/12/11 00:26:23;;;;;;;23.10;18.67;;;0.50;99.90;;;;;;4976899;28;20605;-84
2022/12/11 00:28:55;;;;;;;21.03;17.87;;;0.60;99.90;;;;;;4989805;28;20386;-83
2022/12/11 00:31:21;;;;;;;21.07;18.60;;;0.50;99.90;;;;;;4981229;28;20210;-84
2022/12/11 00:33:48;;;;;;;24.63;18.63;;;0.40;99.90;;;;;;4978013;28;20231;-84
2022/12/11 00:36:16;;;;;;;20.43;18.23;;;0.30;99.90;;;;;;4976691;28;20191;-84
2022/12/11 00:38:43;;;;;;;21.73;17.73;;;0.40;99.90;;;;;;4981605;28;20237;-82
2022/12/11 00:41:09;;;;;;;19.97;17.80;;;0.50;99.90;;;;;;4976310;28;20186;-83
2022/12/11 00:43:35;;;;;;;22.80;18.80;;;0.60;99.90;;;;;;4980321;28;20191;-83
2022/12/11 00:46:01;;;;;;;21.50;16.70;;;0.60;99.90;;;;;;4978504;28;20640;-84
2022/12/11 00:48:27;;;;;;;22.90;19.27;;;0.50;99.90;;;;;;4988519;28;20191;-83
2022/12/11 00:50:52;;;;;;;23.33;18.97;;;0.40;99.90;;;;;;4975108;28;20305;-82
2022/12/11 00:53:18;;;;;;;21.53;17.73;;;0.40;99.90;;;;;;4980666;28;20259;-83
2022/12/11 00:55:44;;;;;;;24.47;20.20;;;0.30;99.90;;;;;;4976123;28;20187;-82
2022/12/11 00:58:11;;;;;;;25.63;20.07;;;0.40;99.90;;;;;;4972379;28;20191;-82
2022/12/11 01:00:38;;;;;;;22.60;19.47;;;0.30;99.90;;;;;;4974595;28;20202;-82
2022/12/11 01:03:04;;;;;;;29.53;21.90;;;0.30;99.90;;;;;;4981444;28;20183;-84
2022/12/11 01:05:30;;;;;;;28.47;22.00;;;0.10;99.90;;;;;;4979812;28;20229;-83
2022/12/11 01:07:55;;;;;;;24.47;20.50;;;-0.10;99.90;;;;;;4978990;28;20218;-83
2022/12/11 01:10:24;;;;;;;23.20;17.93;;;-0.20;99.90;;;;;;4983132;28;20186;-81
2022/12/11 01:12:59;;;;;;;24.07;20.20;;;-0.20;99.90;;;;;;4981713;28;20214;-83
2022/12/11 01:15:28;;;;;;;27.13;21.40;;;-0.20;99.90;;;;;;4981299;28;20259;-85
2022/12/11 01:17:54;;;;;;;27.40;22.20;;;-0.30;99.90;;;;;;4980955;28;20190;-83
2022/12/11 01:20:21;;;;;;;27.43;21.43;;;-0.50;99.90;;;;;;4988582;28;20653;-83
2022/12/11 01:22:47;;;;;;;29.17;22.00;;;-0.60;99.90;;;;;;4985281;28;20187;-83
2022/12/11 01:25:12;;;;;;;30.53;22.37;;;-0.80;99.90;;;;;;4978349;28;20217;-83
2022/12/11 01:27:38;;;;;;;31.13;23.93;;;-1.00;99.90;;;;;;4978738;28;20195;-82
2022/12/11 01:30:07;;;;;;;28.60;23.20;;;-1.10;99.90;;;;;;4997393;28;20544;-84
2022/12/11 01:32:33;;;;;;;30.17;23.33;;;-1.10;99.90;;;;;;4983459;28;20321;-83
2022/12/11 01:34:59;;;;;;;30.00;22.53;;;-1.20;99.90;;;;;;4982682;28;20202;-82
2022/12/11 01:37:25;;;;;;;31.67;25.27;;;-1.20;99.90;;;;;;4981232;28;20262;-84
2022/12/11 01:39:50;;;;;;;31.80;23.87;;;-1.40;99.90;;;;;;4982799;28;20246;-83
2022/12/11 01:42:18;;;;;;;34.50;24.97;;;-1.40;99.90;;;;;;4995812;28;20175;-84
2022/12/11 01:44:44;;;;;;;29.50;23.37;;;-1.40;99.90;;;;;;4983723;28;20214;-82
2022/12/11 01:47:10;;;;;;;36.27;25.13;;;-1.40;99.90;;;;;;4993262;28;20198;-83
2022/12/11 01:49:38;;;;;;;35.13;24.23;;;-1.50;99.90;;;;;;4983705;28;20190;-83
2022/12/11 01:52:18;;;;;;;37.97;24.37;;;-1.60;99.90;;;;;;4984751;28;20245;-80
2022/12/11 01:54:44;;;;;;;35.63;25.20;;;-1.50;99.90;;;;;;4983203;28;20210;-86
2022/12/11 01:57:11;;;;;;;34.13;24.67;;;-1.70;99.90;;;;;;5015119;28;20188;-84
2022/12/11 01:59:42;;;;;;;38.00;26.10;;;-1.60;99.90;;;;;;4981597;28;20198;-83
2022/12/11 02:02:17;;;;;;;37.83;25.57;;;-1.80;99.90;;;;;;4975696;28;20218;-81
2022/12/11 02:04:45;;;;;;;36.87;25.67;;;-2.00;99.90;;;;;;4988339;28;20699;-83
2022/12/11 02:07:10;;;;;;;40.30;26.57;;;-2.00;99.90;;;;;;4988935;28;20637;-83
2022/12/11 02:09:39;;;;;;;40.67;26.83;;;-2.10;99.90;;;;;;4980049;28;20248;-84
2022/12/11 02:12:26;;;;;;;39.90;26.53;;;-2.20;99.90;;;;;;4976764;28;20183;-83
2022/12/11 02:15:19;;;;;;;39.30;26.37;;;-2.10;99.90;;;;;;4972278;28;20930;-83
2022/12/11 02:18:04;;;;;;;41.33;25.90;;;-2.10;99.90;;;;;;4989204;28;20206;-84
2022/12/11 02:20:57;;;;;;;35.80;24.93;;;-2.00;99.90;;;;;;4980156;28;20198;-83
2022/12/11 02:23:42;;;;;;;41.93;25.87;;;-1.90;99.90;;;;;;4978681;28;20195;-83
2022/12/11 02:26:33;;;;;;;40.43;27.47;;;-1.90;99.90;;;;;;4978727;28;20306;-84
2022/12/11 02:29:04;;;;;;;39.40;24.87;;;-2.00;99.90;;;;;;4980586;28;20195;-83
2022/12/11 02:31:42;;;;;;;37.47;25.77;;;-2.00;99.90;;;;;;4976212;28;20191;-84
2022/12/11 02:34:19;;;;;;;39.90;25.23;;;-2.00;99.90;;;;;;4985378;28;20750;-83
2022/12/11 02:36:51;;;;;;;40.13;25.63;;;-1.90;99.90;;;;;;4983681;28;20192;-85
2022/12/11 02:39:17;;;;;;;37.63;25.57;;;-1.90;99.90;;;;;;4982761;28;20683;-86
2022/12/11 02:41:47;;;;;;;43.03;27.53;;;-1.80;99.90;;;;;;4977662;28;20271;-84
2022/12/11 02:44:16;;;;;;;41.67;26.73;;;-1.90;99.90;;;;;;4982736;28;20218;-84
2022/12/11 02:46:43;;;;;;;40.37;26.13;;;-2.00;99.90;;;;;;4988016;28;20642;-84
2022/12/11 02:49:10;;;;;;;48.13;28.37;;;-2.00;99.90;;;;;;4979439;28;20195;-84
2022/12/11 02:51:39;;;;;;;46.50;28.50;;;-2.00;99.90;;;;;;4976891;28;20300;-84
2022/12/11 02:54:16;;;;;;;41.50;28.03;;;-2.00;99.90;;;;;;4972862;28;20233;-84
2022/12/11 02:56:49;;;;;;;43.67;29.37;;;-2.00;99.90;;;;;;4977374;28;20226;-84
2022/12/11 02:59:20;;;;;;;47.63;27.67;;;-2.00;99.90;;;;;;4980614;28;20179;-84
2022/12/11 03:01:46;;;;;;;43.27;27.77;;;-1.90;99.90;;;;;;4977210;28;20308;-82
2022/12/11 03:04:12;;;;;;;40.20;27.57;;;-1.90;99.90;;;;;;4977360;28;20321;-84
2022/12/11 03:06:46;;;;;;;41.97;26.27;;;-1.90;99.90;;;;;;4974524;28;20198;-82
2022/12/11 03:09:12;;;;;;;40.80;26.87;;;-1.70;99.90;;;;;;4981483;28;20194;-82
2022/12/11 03:11:37;;;;;;;43.07;27.60;;;-1.70;99.90;;;;;;4977406;28;25757;-83
2022/12/11 03:14:04;;;;;;;46.13;29.80;;;-1.80;99.90;;;;;;4991021;28;20731;-83
2022/12/11 03:16:35;;;;;;;43.83;27.50;;;-1.80;99.90;;;;;;4976050;28;20183;-82
2022/12/11 03:19:30;;;;;;;39.87;27.00;;;-1.60;99.90;;;;;;4976562;28;20191;-82
2022/12/11 03:22:11;;;;;;;43.80;27.63;;;-1.70;99.90;;;;;;4979465;28;20205;-84
2022/12/11 03:24:46;;;;;;;38.83;25.50;;;-1.80;99.90;;;;;;4982839;28;20289;-82
2022/12/11 03:27:26;;;;;;;39.80;26.40;;;-1.80;99.90;;;;;;4983758;28;20178;-81
2022/12/11 03:30:00;;;;;;;39.60;27.47;;;-1.80;99.90;;;;;;4976122;28;20309;-82
2022/12/11 03:32:34;;;;;;;42.20;26.20;;;-1.90;99.90;;;;;;4973323;28;20202;-84
2022/12/11 03:35:08;;;;;;;37.23;24.80;;;-1.80;99.90;;;;;;4977447;28;20349;-84
2022/12/11 03:37:37;;;;;;;39.03;24.93;;;-1.70;99.90;;;;;;4979359;28;20475;-84
2022/12/11 03:40:09;;;;;;;41.63;26.50;;;-1.60;99.90;;;;;;4977249;28;20274;-83
2022/12/11 03:42:36;;;;;;;41.10;26.07;;;-1.60;99.90;;;;;;5005557;28;20250;-84
2022/12/11 03:45:05;;;;;;;37.43;24.97;;;-1.60;99.90;;;;;;4985715;28;20620;-84
2022/12/11 03:47:31;;;;;;;40.57;25.43;;;-1.60;99.90;;;;;;4979975;28;20189;-84
2022/12/11 03:49:59;;;;;;;37.30;24.27;;;-1.60;99.90;;;;;;4981239;28;20707;-84
2022/12/11 03:52:27;;;;;;;36.73;25.27;;;-1.60;99.90;;;;;;5005993;28;20215;-85
2022/12/11 03:54:55;;;;;;;36.90;25.47;;;-1.60;99.90;;;;;;4994803;28;20187;-84
2022/12/11 03:57:27;;;;;;;36.63;23.97;;;-1.60;99.90;;;;;;4984242;28;20274;-83
2022/12/11 03:59:53;;;;;;;35.30;23.07;;;-1.40;99.90;;;;;;4976097;28;20725;-84
2022/12/11 04:02:19;;;;;;;32.73;22.77;;;-1.30;99.90;;;;;;4982889;28;20233;-84
2022/12/11 04:04:44;;;;;;;37.77;26.53;;;-1.30;99.90;;;;;;4975853;28;20214;-83
2022/12/11 04:07:10;;;;;;;33.87;23.33;;;-1.40;99.90;;;;;;4975912;28;20567;-84
2022/12/11 04:09:35;;;;;;;36.90;24.10;;;-1.30;99.90;;;;;;4976005;28;20187;-84
2022/12/11 04:12:01;;;;;;;40.77;26.63;;;-1.40;99.90;;;;;;4976420;28;20183;-83
2022/12/11 04:24:13;;;;;;;33.87;22.50;;;-1.00;99.90;;;;;;4974912;28;20210;-85
2022/12/11 04:25:25;;;;;;;34.60;23.83;;;-1.10;99.90;;;;;;4977649;28;20260;-84
2022/12/11 04:27:51;;;;;;;35.77;24.20;;;-1.10;99.90;;;;;;4980068;28;20187;-84
2022/12/11 04:30:23;;;;;;;32.17;23.30;;;-1.20;99.90;;;;;;4976138;28;20179;-83
2022/12/11 04:32:50;;;;;;;35.57;24.33;;;-1.10;99.90;;;;;;4985003;28;20202;-83
2022/12/11 04:35:16;;;;;;;31.30;21.83;;;-1.00;99.90;;;;;;4975943;28;20207;-83
2022/12/11 04:37:42;;;;;;;31.97;23.57;;;-0.90;99.90;;;;;;4979546;28;20187;-84
2022/12/11 04:40:11;;;;;;;35.70;23.23;;;-0.80;99.90;;;;;;4995986;28;20258;-82
2022/12/11 04:42:37;;;;;;;34.03;23.77;;;-0.80;99.90;;;;;;4990392;28;20278;-85
2022/12/11 04:45:04;;;;;;;36.00;25.80;;;-0.90;99.90;;;;;;4982874;28;20227;-82
2022/12/11 04:47:29;;;;;;;32.23;24.67;;;-1.10;99.90;;;;;;4994777;28;20195;-84
2022/12/11 04:49:55;;;;;;;36.33;24.63;;;-1.10;99.90;;;;;;4991402;28;20272;-85
2022/12/11 04:52:21;;;;;;;38.50;26.27;;;-1.10;99.90;;;;;;4988566;28;20209;-84
2022/12/11 04:54:46;;;;;;;34.40;23.20;;;-1.20;99.90;;;;;;4985092;28;20309;-84
2022/12/11 04:57:12;;;;;;;38.20;27.17;;;-1.10;99.90;;;;;;4981698;28;20209;-84
2022/12/11 04:59:38;;;;;;;33.87;24.33;;;-1.30;99.90;;;;;;4987668;28;20193;-84
2022/12/11 05:02:04;;;;;;;37.60;24.97;;;-1.20;99.90;;;;;;4985342;28;20218;-82
2022/12/11 05:04:33;;;;;;;38.50;26.13;;;-1.20;99.90;;;;;;4980483;28;20215;-85
2022/12/11 05:06:59;;;;;;;40.27;26.20;;;-1.30;99.90;;;;;;4980154;28;20194;-84
2022/12/11 05:09:26;;;;;;;35.17;25.60;;;-1.30;99.90;;;;;;4980992;28;20183;-84
2022/12/11 05:11:52;;;;;;;34.93;24.90;;;-1.30;99.90;;;;;;4986838;28;20446;-84
2022/12/11 05:14:18;;;;;;;37.27;25.70;;;-1.30;99.90;;;;;;4982389;28;20242;-83
2022/12/11 05:16:43;;;;;;;37.10;25.57;;;-1.40;99.90;;;;;;4984825;28;20194;-83
2022/12/11 05:19:09;;;;;;;37.73;25.03;;;-1.50;99.90;;;;;;4980783;28;20210;-83
2022/12/11 05:21:35;;;;;;;38.33;25.90;;;-1.60;99.90;;;;;;4987749;28;20237;-83
2022/12/11 05:24:01;;;;;;;39.73;26.50;;;-1.60;99.90;;;;;;4987963;28;20266;-84
2022/12/11 05:26:26;;;;;;;36.30;25.47;;;-1.60;99.90;;;;;;4980340;28;20277;-86
2022/12/11 05:28:53;;;;;;;39.30;25.67;;;-1.60;99.90;;;;;;4982824;28;20195;-83
2022/12/11 05:31:24;;;;;;;32.93;23.10;;;-1.70;99.90;;;;;;5001081;28;20656;-86
2022/12/11 05:33:51;;;;;;;33.97;24.47;;;-1.60;99.90;;;;;;4994243;28;20280;-83
2022/12/11 05:36:21;;;;;;;33.47;23.30;;;-1.60;99.90;;;;;;4979558;28;20179;-84
2022/12/11 05:38:47;;;;;;;34.20;23.73;;;-1.50;99.90;;;;;;4978772;28;20223;-86
2022/12/11 05:41:16;;;;;;;34.40;22.93;;;-1.50;99.90;;;;;;4987098;28;20186;-83
2022/12/11 05:43:42;;;;;;;33.90;23.33;;;-1.40;99.90;;;;;;4978797;28;20218;-83
2022/12/11 05:46:13;;;;;;;32.70;23.33;;;-1.30;99.90;;;;;;4979613;28;20191;-85
2022/12/11 05:48:41;;;;;;;35.27;21.33;;;-1.40;99.90;;;;;;4979567;28;20758;-83
2022/12/11 05:51:07;;;;;;;32.87;22.43;;;-1.40;99.90;;;;;;4988238;28;20199;-82
2022/12/11 05:53:34;;;;;;;35.30;22.67;;;-1.30;99.90;;;;;;4998608;28;20238;-83
2022/12/11 05:56:05;;;;;;;34.77;23.77;;;-1.40;99.90;;;;;;4981723;28;20183;-83
2022/12/11 05:58:31;;;;;;;34.40;23.93;;;-1.40;99.90;;;;;;5001488;28;20189;-84
2022/12/11 06:00:58;;;;;;;36.23;24.57;;;-1.40;99.90;;;;;;4984960;28;20195;-84
2022/12/11 06:03:24;;;;;;;32.80;23.97;;;-1.40;99.90;;;;;;4993917;28;20507;-84
2022/12/11 06:05:50;;;;;;;35.10;23.07;;;-1.50;99.90;;;;;;4987407;28;20187;-84
2022/12/11 06:08:15;;;;;;;36.47;25.17;;;-1.40;99.90;;;;;;4980310;28;20214;-85
2022/12/11 06:10:46;;;;;;;40.50;25.97;;;-1.60;99.90;;;;;;4980601;28;20198;-84
2022/12/11 06:13:12;;;;;;;35.13;24.07;;;-1.60;99.90;;;;;;4977574;28;20370;-84
2022/12/11 06:15:37;;;;;;;32.33;22.33;;;-1.60;99.90;;;;;;4991263;28;20500;-84
2022/12/11 06:18:03;;;;;;;35.40;24.70;;;-1.60;99.90;;;;;;4991827;28;20269;-83
2022/12/11 06:20:33;;;;;;;37.33;24.10;;;-1.50;99.90;;;;;;4979828;28;20202;-84
2022/12/11 06:22:59;;;;;;;33.07;22.90;;;-1.40;99.90;;;;;;4985108;28;20209;-84
2022/12/11 06:25:25;;;;;;;33.20;21.93;;;-1.30;99.90;;;;;;4997380;28;20198;-83
2022/12/11 06:27:51;;;;;;;29.73;22.17;;;-1.30;99.90;;;;;;5000652;28;20254;-84
2022/12/11 06:30:17;;;;;;;30.87;22.63;;;-1.20;99.90;;;;;;4983527;28;20660;-84
2022/12/11 06:32:43;;;;;;;32.03;21.87;;;-1.30;99.90;;;;;;4988926;28;20759;-84
2022/12/11 06:35:09;;;;;;;31.83;21.63;;;-1.30;99.90;;;;;;4980159;28;20343;-84
2022/12/11 06:37:37;;;;;;;28.97;22.00;;;-1.30;99.90;;;;;;4979717;28;20500;-84
2022/12/11 06:40:07;;;;;;;33.00;22.67;;;-1.40;99.90;;;;;;4980207;28;20270;-82
2022/12/11 06:42:33;;;;;;;33.10;23.30;;;-1.60;99.90;;;;;;4981880;28;20207;-84
2022/12/11 06:44:58;;;;;;;29.63;20.77;;;-1.60;99.90;;;;;;4974962;28;20594;-83
2022/12/11 06:47:28;;;;;;;29.47;22.33;;;-1.70;99.90;;;;;;4983961;28;20194;-84
2022/12/11 06:49:55;;;;;;;29.83;21.80;;;-1.70;99.90;;;;;;4983268;28;20243;-84
2022/12/11 06:52:26;;;;;;;31.97;22.00;;;-1.70;99.90;;;;;;4982743;28;20305;-85
2022/12/11 06:54:52;;;;;;;32.40;21.43;;;-1.70;99.90;;;;;;4991775;28;20245;-84
2022/12/11 06:57:18;;;;;;;31.00;20.90;;;-1.60;99.90;;;;;;4982732;28;20226;-84
2022/12/11 06:59:44;;;;;;;34.37;22.37;;;-1.60;99.90;;;;;;4980315;28;20708;-83
2022/12/11 07:02:14;;;;;;;32.87;21.57;;;-1.70;99.90;;;;;;4985208;28;20187;-83
2022/12/11 07:04:41;;;;;;;31.77;21.87;;;-1.60;99.90;;;;;;5012228;28;20215;-83
2022/12/11 07:07:07;;;;;;;32.50;21.60;;;-1.70;99.90;;;;;;4989669;28;20187;-82
2022/12/11 07:09:33;;;;;;;33.13;21.57;;;-1.70;99.90;;;;;;4985313;28;20267;-83
2022/12/11 07:11:59;;;;;;;31.27;20.90;;;-1.70;99.90;;;;;;4984392;28;20213;-83
2022/12/11 07:14:24;;;;;;;33.90;21.87;;;-1.70;99.90;;;;;;4991885;28;20543;-85
2022/12/11 07:16:50;;;;;;;33.80;23.30;;;-1.70;99.90;;;;;;4993947;28;20187;-85
2022/12/11 07:19:16;;;;;;;35.07;23.13;;;-1.70;99.90;;;;;;4997275;28;20257;-85
2022/12/11 07:21:41;;;;;;;36.33;22.60;;;-1.70;99.90;;;;;;4981786;28;20242;-84
2022/12/11 07:24:07;;;;;;;35.47;23.57;;;-1.60;99.90;;;;;;4976374;28;20994;-85
2022/12/11 07:26:34;;;;;;;31.57;22.30;;;-1.60;99.90;;;;;;4976868;28;20193;-84
2022/12/11 07:29:00;;;;;;;31.77;22.03;;;-1.60;99.90;;;;;;4976878;28;20195;-81
2022/12/11 07:31:27;;;;;;;35.77;22.03;;;-1.60;99.90;;;;;;4978463;28;20189;-84
2022/12/11 07:34:04;;;;;;;39.63;24.47;;;-1.60;99.90;;;;;;4979540;28;20217;-84
2022/12/11 07:36:30;;;;;;;31.57;21.97;;;-1.60;99.90;;;;;;4986130;28;20205;-86
2022/12/11 07:38:57;;;;;;;38.97;24.73;;;-1.60;99.90;;;;;;4983363;28;20187;-82
2022/12/11 07:41:23;;;;;;;34.57;22.43;;;-1.60;99.90;;;;;;4979399;28;20187;-84
2022/12/11 07:43:48;;;;;;;34.67;23.43;;;-1.50;99.90;;;;;;4975830;28;20231;-83
2022/12/11 07:46:17;;;;;;;29.63;21.47;;;-1.40;99.90;;;;;;4976191;28;20282;-84
2022/12/11 07:48:45;;;;;;;30.40;23.27;;;-1.20;99.90;;;;;;4976408;28;20195;-82
2022/12/11 07:51:16;;;;;;;35.57;23.07;;;-1.20;99.90;;;;;;4976963;28;20214;-84
2022/12/11 07:53:44;;;;;;;31.17;22.63;;;-1.10;99.90;;;;;;4990543;28;20533;-85
2022/12/11 07:56:10;;;;;;;35.43;24.43;;;-1.10;99.90;;;;;;4976927;28;20186;-85
2022/12/11 07:58:37;;;;;;;34.97;23.73;;;-1.20;99.90;;;;;;4990422;28;20187;-85
2022/12/11 08:01:11;;;;;;;35.27;25.20;;;-1.20;99.90;;;;;;4979586;28;20181;-85
2022/12/11 08:03:38;;;;;;;31.87;23.90;;;-1.20;99.90;;;;;;4990087;28;20190;-84
2022/12/11 08:06:04;;;;;;;30.97;23.00;;;-1.20;99.90;;;;;;4981300;28;20265;-83
2022/12/11 08:08:29;;;;;;;33.37;23.83;;;-1.20;99.90;;;;;;4980732;28;20195;-84
2022/12/11 08:10:55;;;;;;;35.77;24.20;;;-1.10;99.90;;;;;;4976072;28;20202;-85
2022/12/11 08:13:20;;;;;;;32.63;23.37;;;-1.20;99.90;;;;;;4974888;28;20207;-85
2022/12/11 08:15:46;;;;;;;35.17;25.83;;;-1.10;99.90;;;;;;4975711;28;20207;-87
2022/12/11 08:18:12;;;;;;;34.00;25.37;;;-1.10;99.90;;;;;;4975698;28;20193;-85
2022/12/11 08:20:38;;;;;;;35.57;24.27;;;-1.10;99.90;;;;;;4979814;28;20715;-83
2022/12/11 08:23:04;;;;;;;38.77;26.20;;;-1.10;99.90;;;;;;4973076;28;20198;-84
2022/12/11 08:25:30;;;;;;;39.30;25.67;;;-1.00;99.90;;;;;;4975885;28;20211;-85
2022/12/11 08:27:55;;;;;;;33.07;24.33;;;-1.10;99.90;;;;;;4993264;28;20190;-85
2022/12/11 08:30:21;;;;;;;37.83;26.20;;;-1.10;99.90;;;;;;4976319;28;20191;-86
2022/12/11 08:32:46;;;;;;;34.53;24.53;;;-1.20;99.90;;;;;;4987973;28;20206;-85
2022/12/11 08:35:12;;;;;;;35.43;26.23;;;-1.20;99.90;;;;;;4982543;28;20553;-85
2022/12/11 08:37:39;;;;;;;35.43;25.17;;;-1.20;99.90;;;;;;4969929;28;20195;-85
2022/12/11 08:40:05;;;;;;;33.73;25.17;;;-1.10;99.90;;;;;;4968114;28;20198;-85
2022/12/11 08:42:30;;;;;;;41.00;27.10;;;-1.00;99.90;;;;;;4980987;28;20225;-85
2022/12/11 08:44:56;;;;;;;38.53;26.07;;;-1.10;99.90;;;;;;4979932;28;20207;-84
2022/12/11 08:47:22;;;;;;;38.13;24.77;;;-1.10;99.90;;;;;;4976262;28;20197;-85
2022/12/11 08:49:47;;;;;;;36.97;25.20;;;-1.20;99.90;;;;;;4979886;28;20281;-85
2022/12/11 08:52:13;;;;;;;38.60;26.13;;;-1.20;99.90;;;;;;4986309;28;20198;-85
2022/12/11 08:54:39;;;;;;;39.30;25.03;;;-1.10;99.90;;;;;;4979947;28;20217;-85
2022/12/11 08:57:04;;;;;;;37.17;24.90;;;-1.10;99.90;;;;;;4977086;28;20202;-84
2022/12/11 08:59:30;;;;;;;33.63;23.43;;;-1.00;99.90;;;;;;4973899;28;20187;-85
2022/12/11 09:01:56;;;;;;;38.07;24.53;;;-0.90;99.90;;;;;;4980705;28;20197;-85
2022/12/11 09:04:22;;;;;;;32.03;23.37;;;-0.90;99.90;;;;;;4974267;28;20221;-85
2022/12/11 09:06:48;;;;;;;36.47;23.50;;;-0.90;99.90;;;;;;4985903;28;20198;-87
2022/12/11 09:09:14;;;;;;;38.03;23.80;;;-1.00;99.90;;;;;;5003406;28;20273;-86
2022/12/11 09:11:39;;;;;;;31.93;22.43;;;-1.10;99.90;;;;;;4999115;28;20191;-86
2022/12/11 09:14:05;;;;;;;37.03;23.47;;;-1.00;99.90;;;;;;4995195;28;20290;-87
2022/12/11 09:16:31;;;;;;;35.33;23.27;;;-0.90;99.90;;;;;;4989356;28;20280;-85
2022/12/11 09:18:58;;;;;;;37.13;24.03;;;-0.90;99.90;;;;;;4973635;28;20238;-84
2022/12/11 09:21:27;;;;;;;34.60;24.27;;;-1.00;99.90;;;;;;4977731;28;20201;-84
2022/12/11 09:23:55;;;;;;;36.87;23.83;;;-0.90;99.90;;;;;;4977987;28;20573;-85
2022/12/11 09:26:21;;;;;;;35.23;23.43;;;-0.80;99.90;;;;;;4981187;28;20198;-85
2022/12/11 09:28:47;;;;;;;31.90;22.43;;;-0.70;99.90;;;;;;4985234;28;20581;-85
2022/12/11 09:31:13;;;;;;;37.20;24.20;;;-0.70;99.90;;;;;;4988193;28;20186;-84
2022/12/11 09:33:38;;;;;;;36.50;24.17;;;-0.70;99.90;;;;;;4982795;28;20278;-84
2022/12/11 09:36:05;;;;;;;37.70;24.03;;;-0.50;99.90;;;;;;4994193;28;20694;-86
2022/12/11 09:38:32;;;;;;;33.97;23.83;;;-0.60;99.90;;;;;;4994594;28;20202;-85
2022/12/11 09:40:58;;;;;;;35.97;24.30;;;-0.40;99.90;;;;;;4984080;28;20215;-84
2022/12/11 09:43:26;;;;;;;34.90;23.97;;;-0.50;99.90;;;;;;4984213;28;20195;-85
2022/12/11 09:45:54;;;;;;;32.33;22.00;;;-0.40;99.90;;;;;;4976692;28;20190;-85
2022/12/11 09:48:23;;;;;;;35.73;24.90;;;-0.30;99.90;;;;;;4979312;28;20227;-84
2022/12/11 09:50:52;;;;;;;36.57;24.13;;;-0.30;99.90;;;;;;4975893;28;20214;-85
2022/12/11 09:53:25;;;;;;;35.77;23.47;;;-0.30;99.90;;;;;;4977383;28;20318;-84
2022/12/11 09:56:02;;;;;;;32.70;23.27;;;-0.40;99.90;;;;;;4980708;28;20194;-86
2022/12/11 09:58:44;;;;;;;36.67;25.60;;;-0.30;99.90;;;;;;4981342;28;20252;-85
2022/12/11 10:01:33;;;;;;;36.90;24.67;;;-0.30;99.90;;;;;;4974610;28;20187;-84
2022/12/11 10:04:10;;;;;;;37.60;24.07;;;-0.10;99.90;;;;;;4997490;28;20250;-83
2022/12/11 10:06:53;;;;;;;35.90;23.73;;;-0.30;99.90;;;;;;4981887;28;20692;-85
2022/12/11 10:09:32;;;;;;;35.70;23.90;;;-0.50;99.90;;;;;;4971580;28;20316;-86
2022/12/11 10:12:04;;;;;;;32.20;22.33;;;-0.30;99.90;;;;;;4972500;28;20214;-87
2022/12/11 10:14:54;;;;;;;36.33;24.67;;;-0.20;99.90;;;;;;4972265;28;20242;-86
2022/12/11 10:17:27;;;;;;;31.97;22.80;;;-0.40;99.90;;;;;;4979294;28;20268;-86
2022/12/11 10:19:57;;;;;;;37.80;24.37;;;-0.40;99.90;;;;;;4974791;28;20206;-85
2022/12/11 10:22:29;;;;;;;34.50;23.63;;;-0.30;99.90;;;;;;4977957;28;21042;-85
2022/12/11 10:24:59;;;;;;;33.47;24.77;;;-0.20;99.90;;;;;;4968983;28;20222;-83
2022/12/11 10:27:30;;;;;;;36.57;24.43;;;-0.20;99.90;;;;;;4965365;28;20290;-85
2022/12/11 10:30:18;;;;;;;34.67;23.83;;;-0.20;99.90;;;;;;4963983;28;20194;-84
2022/12/11 10:32:43;;;;;;;31.50;22.60;;;-0.10;99.90;;;;;;4970169;28;20211;-84
2022/12/11 10:35:25;;;;;;;36.40;24.50;;;0.00;99.90;;;;;;4971515;28;20230;-85
2022/12/11 10:37:57;;;;;;;33.13;24.27;;;0.00;99.90;;;;;;4968144;28;20206;-84
2022/12/11 10:40:24;;;;;;;36.67;23.40;;;0.10;99.90;;;;;;4966555;28;20199;-84
2022/12/11 10:42:54;;;;;;;35.30;23.63;;;0.30;99.90;;;;;;4967705;28;20237;-84
2022/12/11 10:45:20;;;;;;;38.03;24.53;;;0.10;99.90;;;;;;4970461;28;20246;-84
2022/12/11 10:47:45;;;;;;;32.63;22.83;;;0.20;99.90;;;;;;4970765;28;20696;-84
2022/12/11 10:50:24;;;;;;;31.87;23.47;;;0.30;99.90;;;;;;4964394;28;20198;-84
2022/12/11 10:52:50;;;;;;;37.20;24.70;;;0.30;99.90;;;;;;4968866;28;20211;-85
2022/12/11 10:55:21;;;;;;;38.27;24.90;;;0.30;99.90;;;;;;4970856;28;20202;-85
2022/12/11 10:57:58;;;;;;;32.73;24.70;;;0.20;99.90;;;;;;4965687;28;20230;-83
2022/12/11 11:00:39;;;;;;;34.77;25.63;;;0.20;99.90;;;;;;4966698;28;20185;-83
2022/12/11 11:03:25;;;;;;;37.90;26.63;;;0.30;99.90;;;;;;4968847;28;20199;-84
2022/12/11 11:06:18;;;;;;;35.70;25.67;;;0.30;99.90;;;;;;4982294;28;20175;-84
2022/12/11 11:08:46;;;;;;;38.63;25.50;;;0.40;99.90;;;;;;4982492;28;20218;-85
2022/12/11 11:11:32;;;;;;;35.47;24.33;;;0.30;99.90;;;;;;4989599;28;20174;-84
2022/12/11 11:14:20;;;;;;;37.47;26.27;;;0.40;99.90;;;;;;4983974;28;20216;-86
2022/12/11 11:16:49;;;;;;;34.67;24.10;;;0.50;99.90;;;;;;4975774;28;20212;-84
2022/12/11 11:19:31;;;;;;;35.70;24.07;;;0.40;99.90;;;;;;4968703;28;20788;-84
2022/12/11 11:22:00;;;;;;;36.23;25.97;;;0.50;99.90;;;;;;4969400;28;20667;-84
2022/12/11 11:24:27;;;;;;;34.63;24.90;;;0.40;99.90;;;;;;4971011;28;20206;-82
2022/12/11 11:26:53;;;;;;;41.50;26.23;;;0.50;99.90;;;;;;4970763;28;20193;-83
2022/12/11 11:29:27;;;;;;;34.40;25.43;;;0.50;99.90;;;;;;4974828;28;20194;-84
2022/12/11 11:31:53;;;;;;;35.53;24.97;;;0.50;99.90;;;;;;4973716;28;20227;-84
2022/12/11 11:34:24;;;;;;;35.80;25.57;;;0.50;99.90;;;;;;4976294;28;20222;-84
2022/12/11 11:36:59;;;;;;;38.27;25.97;;;0.50;99.90;;;;;;4976989;28;20361;-84
2022/12/11 11:39:43;;;;;;;34.57;25.30;;;0.40;99.90;;;;;;4971024;28;20202;-83
2022/12/11 11:42:28;;;;;;;36.73;26.17;;;0.30;99.90;;;;;;4971096;28;20182;-83
2022/12/11 11:45:25;;;;;;;43.43;26.43;;;0.40;99.90;;;;;;4971546;28;20595;-82
2022/12/11 11:48:25;;;;;;;36.77;26.90;;;0.40;99.90;;;;;;4970523;28;21079;-84
2022/12/11 11:50:52;;;;;;;36.23;26.13;;;0.40;99.90;;;;;;4971011;28;20191;-83
2022/12/11 11:53:36;;;;;;;34.00;24.67;;;0.60;99.90;;;;;;4975960;28;20386;-83
2022/12/11 11:56:21;;;;;;;34.30;23.87;;;0.70;99.90;;;;;;4974395;28;20194;-82
2022/12/11 11:59:01;;;;;;;33.07;24.83;;;0.60;99.90;;;;;;4977004;28;20179;-84
2022/12/11 12:01:27;;;;;;;32.43;24.17;;;0.60;99.90;;;;;;4973029;28;20175;-83
2022/12/11 12:03:53;;;;;;;35.93;25.60;;;0.70;99.90;;;;;;4974415;28;20214;-83
2022/12/11 12:06:40;;;;;;;37.03;25.67;;;0.50;99.90;;;;;;4973458;28;20246;-83
2022/12/11 12:09:24;;;;;;;39.43;26.47;;;0.30;99.90;;;;;;4979760;28;20635;-84
2022/12/11 12:11:53;;;;;;;31.87;25.33;;;0.60;99.90;;;;;;4979115;28;20213;-82
2022/12/11 12:14:19;;;;;;;31.33;24.63;;;0.70;99.90;;;;;;4982002;28;20233;-83
2022/12/11 12:16:57;;;;;;;32.10;23.50;;;0.90;99.90;;;;;;4983147;28;20676;-83
2022/12/11 12:19:34;;;;;;;27.97;21.93;;;1.00;99.60;;;;;;4970427;28;20787;-82
2022/12/11 12:22:13;;;;;;;31.07;23.33;;;0.90;98.90;;;;;;4975178;28;20201;-83
2022/12/11 12:24:59;;;;;;;31.03;21.90;;;0.80;99.30;;;;;;4972792;28;20226;-83
2022/12/11 12:28:09;;;;;;;32.83;23.07;;;0.90;99.90;;;;;;4972793;28;20284;-83
2022/12/11 12:30:54;;;;;;;27.43;21.07;;;0.90;98.90;;;;;;4980108;28;20206;-84
2022/12/11 12:33:33;;;;;;;27.77;21.93;;;0.90;98.10;;;;;;4980337;28;20223;-84
2022/12/11 12:35:59;;;;;;;31.03;22.43;;;0.80;99.20;;;;;;4979675;28;20213;-84
2022/12/11 12:38:54;;;;;;;31.90;24.03;;;0.90;99.40;;;;;;4981945;28;20178;-83
2022/12/11 12:41:56;;;;;;;33.93;24.13;;;1.00;98.90;;;;;;4993318;28;20314;-83
2022/12/11 12:44:24;;;;;;;34.53;24.77;;;1.10;99.50;;;;;;4976119;28;20313;-84
2022/12/11 12:47:01;;;;;;;33.83;23.27;;;1.30;97.50;;;;;;4975289;28;20201;-85
2022/12/11 12:49:38;;;;;;;30.47;24.07;;;1.40;98.40;;;;;;4975171;28;20218;-84
2022/12/11 12:52:10;;;;;;;29.03;22.80;;;1.60;96.90;;;;;;4976704;28;20281;-84
2022/12/11 12:54:37;;;;;;;29.40;23.57;;;1.60;96.70;;;;;;4988230;28;20237;-83